KSOW

Show Low Regional Airport

Show Low, Arizona, USA
METAR KSOW 220355Z AUTO 22008KT 10SM CLR M02/M09 A2983 RMK AO2
Observed Flight Rules
Jan-22 @ 03:55 UTC (20 minutes ago) Visual Flight Rules
Wind Visibility Clouds
220° at 8 knots 10 miles
  • Clear skies
Temperatures Readings
Current -2°C / 28°F
Dewpoint -9°C / 16°F
Humidity 59%
Altimeter 29.83" Hg
Pressure 1010.12 hPa
Elevation 1954
METAR KSOW 220355Z AUTO 22008KT 10SM CLR M02/M09 A2983 RMK AO2
Observed Flight Rules
Jan-22 @ 03:55 UTC
(20 minutes ago)
VFR
Wind Visibility
220° at 8 knots 10 miles
Clouds
  • Clear skies
Temperature Dewpoint
-2°C / 28°F -9°C / 16°F
Humidity Altimeter Pressure
59% 29.83" Hg 1010.12 hPa